Airfield :
LOGIN :

Register | Disclaimer

   EN    FR    IT 

 










Legend :    VFR   Marginal VFR   IFR   Intensive IFR   Very Intensive IFR
Visi :
Ceiling :
>= 8 km
>= 3000ft
5 to 8 km
1000 to 3000 ft
1500m to 5 km
500 to 1000 ft
800 to 1500m
200 to 500 ft
< 800m
< 200 ft
Symbols :   Thunderstorms  Fog  Heavy snow  Heavy precipitations  Wind > 20 kt
SIGMETs :     Misc.  Thunderstorms  Icing  Turbulence  Mountain Waves  Volcanic Ashes






- Airport Elevation : 3368 ft


LSGC - Les Eplatures

CURRENT METAR :
  • 052250Z AUTO 04009KT 4400 -SN OVC003 M00/M00 Q1032

EXPIRED METARs :
  • 052220Z AUTO 04009KT 1400 -SN VV009 M00/M00 Q1032 REFZDZ
  • 052150Z AUTO 04009KT 2300 -SN BKN006 M00/M00 Q1032
  • 052120Z AUTO 04006KT 1800 -SN BKN005 M00/M00 Q1031 REFZDZ
  • 052050Z AUTO 05005KT 1200 -SN VV008 M00/M00 Q1031
  • 052020Z AUTO 02007KT 340V060 1500 -SN SCT005 SCT007 BKN009 M00/M00 Q1031 REFZDZ

TAF TAF LSGC
Valid from the 05 at 15:00 until the 06 at 00:00 UTC


051425Z 0515/0524 VRB02KT 9999 BKN007
TEMPO 0515/0524 1500 -SN BKN004



MET'MAP, your aeronautical weather chart ! - Copyright ORBIFLY December 2007 - Disclaimer

ORBIFLY MET'MAP TEAM :

Programming & Development : Alexandra Zaïnal
Original concept : Baudouin d'Aumeries
Technical & hardware support : Manuel Goepfert
Assistance : Marc-Olivier Méhu




SOURCES & CREDITS :

   NOAA